sensor_id;sensor_type;location;lat;lon;timestamp;P1;durP1;ratioP1;P2;durP2;ratioP2
77417;SDS011;66490;51.484;0.026;2023-03-31T00:01:01;13.13;;;2.13;;
77417;SDS011;66490;51.484;0.026;2023-03-31T00:03:47;14.90;;;2.25;;
77417;SDS011;66490;51.484;0.026;2023-03-31T00:06:32;10.05;;;1.75;;
77417;SDS011;66490;51.484;0.026;2023-03-31T00:09:20;14.80;;;2.40;;
77417;SDS011;66490;51.484;0.026;2023-03-31T00:12:05;12.82;;;2.40;;
77417;SDS011;66490;51.484;0.026;2023-03-31T00:14:49;13.30;;;2.83;;
77417;SDS011;66490;51.484;0.026;2023-03-31T00:17:33;20.90;;;2.95;;
77417;SDS011;66490;51.484;0.026;2023-03-31T00:20:16;11.43;;;3.30;;
77417;SDS011;66490;51.484;0.026;2023-03-31T00:23:01;13.97;;;1.77;;
77417;SDS011;66490;51.484;0.026;2023-03-31T00:25:44;14.27;;;2.45;;
77417;SDS011;66490;51.484;0.026;2023-03-31T00:28:28;12.85;;;2.88;;
77417;SDS011;66490;51.484;0.026;2023-03-31T00:31:12;17.42;;;2.40;;
77417;SDS011;66490;51.484;0.026;2023-03-31T00:33:57;13.77;;;2.08;;
77417;SDS011;66490;51.484;0.026;2023-03-31T00:36:41;17.67;;;1.93;;
77417;SDS011;66490;51.484;0.026;2023-03-31T00:39:38;11.35;;;1.55;;
77417;SDS011;66490;51.484;0.026;2023-03-31T00:42:22;11.38;;;1.60;;
77417;SDS011;66490;51.484;0.026;2023-03-31T00:50:42;16.53;;;1.90;;
77417;SDS011;66490;51.484;0.026;2023-03-31T00:53:30;10.55;;;2.28;;
77417;SDS011;66490;51.484;0.026;2023-03-31T00:56:14;11.20;;;1.40;;
77417;SDS011;66490;51.484;0.026;2023-03-31T00:59:00;7.18;;;1.65;;
77417;SDS011;66490;51.484;0.026;2023-03-31T01:01:44;12.55;;;1.60;;
77417;SDS011;66490;51.484;0.026;2023-03-31T01:04:31;11.57;;;2.20;;
77417;SDS011;66490;51.484;0.026;2023-03-31T01:07:26;11.52;;;1.92;;
77417;SDS011;66490;51.484;0.026;2023-03-31T01:10:13;11.80;;;1.77;;
77417;SDS011;66490;51.484;0.026;2023-03-31T01:12:57;7.80;;;1.80;;
77417;SDS011;66490;51.484;0.026;2023-03-31T01:15:41;11.65;;;1.98;;
77417;SDS011;66490;51.484;0.026;2023-03-31T01:18:28;10.03;;;2.40;;
77417;SDS011;66490;51.484;0.026;2023-03-31T01:24:21;9.60;;;1.60;;
77417;SDS011;66490;51.484;0.026;2023-03-31T01:30:22;9.10;;;2.17;;
77417;SDS011;66490;51.484;0.026;2023-03-31T01:44:44;9.30;;;1.92;;
77417;SDS011;66490;51.484;0.026;2023-03-31T01:47:32;10.00;;;1.80;;
77417;SDS011;66490;51.484;0.026;2023-03-31T01:50:37;9.20;;;1.70;;
77417;SDS011;66490;51.484;0.026;2023-03-31T01:53:30;6.95;;;1.58;;
77417;SDS011;66490;51.484;0.026;2023-03-31T01:56:21;5.95;;;1.48;;
77417;SDS011;66490;51.484;0.026;2023-03-31T01:59:09;9.27;;;1.80;;
77417;SDS011;66490;51.484;0.026;2023-03-31T02:01:55;8.30;;;1.70;;
77417;SDS011;66490;51.484;0.026;2023-03-31T02:04:42;12.75;;;1.77;;
77417;SDS011;66490;51.484;0.026;2023-03-31T02:07:33;15.52;;;2.67;;
77417;SDS011;66490;51.484;0.026;2023-03-31T02:10:20;15.13;;;2.33;;
77417;SDS011;66490;51.484;0.026;2023-03-31T02:13:05;11.55;;;2.40;;
77417;SDS011;66490;51.484;0.026;2023-03-31T02:15:51;14.40;;;2.13;;
77417;SDS011;66490;51.484;0.026;2023-03-31T02:18:36;10.63;;;1.98;;
77417;SDS011;66490;51.484;0.026;2023-03-31T02:21:20;12.00;;;2.50;;
77417;SDS011;66490;51.484;0.026;2023-03-31T02:24:06;12.40;;;2.28;;
77417;SDS011;66490;51.484;0.026;2023-03-31T02:27:00;14.00;;;2.20;;
77417;SDS011;66490;51.484;0.026;2023-03-31T02:29:47;13.33;;;2.30;;
77417;SDS011;66490;51.484;0.026;2023-03-31T02:32:41;13.80;;;2.28;;
77417;SDS011;66490;51.484;0.026;2023-03-31T02:35:25;11.65;;;2.55;;
77417;SDS011;66490;51.484;0.026;2023-03-31T02:38:09;16.02;;;2.33;;
77417;SDS011;66490;51.484;0.026;2023-03-31T02:40:54;14.13;;;2.33;;
77417;SDS011;66490;51.484;0.026;2023-03-31T02:43:38;17.43;;;2.80;;
77417;SDS011;66490;51.484;0.026;2023-03-31T02:46:22;14.35;;;2.85;;
77417;SDS011;66490;51.484;0.026;2023-03-31T02:49:07;16.70;;;2.22;;
77417;SDS011;66490;51.484;0.026;2023-03-31T02:57:58;16.93;;;2.83;;
77417;SDS011;66490;51.484;0.026;2023-03-31T03:06:48;15.63;;;2.72;;
77417;SDS011;66490;51.484;0.026;2023-03-31T03:12:37;21.30;;;3.77;;
77417;SDS011;66490;51.484;0.026;2023-03-31T03:15:35;24.02;;;4.18;;
77417;SDS011;66490;51.484;0.026;2023-03-31T03:18:20;29.85;;;4.43;;
77417;SDS011;66490;51.484;0.026;2023-03-31T03:21:03;19.45;;;4.07;;
77417;SDS011;66490;51.484;0.026;2023-03-31T03:23:48;25.00;;;4.95;;
77417;SDS011;66490;51.484;0.026;2023-03-31T03:26:32;26.97;;;4.00;;
77417;SDS011;66490;51.484;0.026;2023-03-31T03:29:17;25.73;;;4.78;;
77417;SDS011;66490;51.484;0.026;2023-03-31T03:32:04;26.33;;;3.35;;
77417;SDS011;66490;51.484;0.026;2023-03-31T03:34:48;25.80;;;4.65;;
77417;SDS011;66490;51.484;0.026;2023-03-31T03:37:32;24.85;;;3.85;;
77417;SDS011;66490;51.484;0.026;2023-03-31T03:40:16;27.33;;;4.50;;
77417;SDS011;66490;51.484;0.026;2023-03-31T03:43:03;24.15;;;3.85;;
77417;SDS011;66490;51.484;0.026;2023-03-31T03:45:47;37.15;;;5.38;;
77417;SDS011;66490;51.484;0.026;2023-03-31T03:48:31;24.13;;;3.58;;
77417;SDS011;66490;51.484;0.026;2023-03-31T03:51:15;21.92;;;4.50;;
77417;SDS011;66490;51.484;0.026;2023-03-31T03:54:02;24.90;;;4.20;;
77417;SDS011;66490;51.484;0.026;2023-03-31T03:56:46;20.27;;;3.17;;
77417;SDS011;66490;51.484;0.026;2023-03-31T03:59:30;20.30;;;3.17;;
77417;SDS011;66490;51.484;0.026;2023-03-31T04:02:14;19.85;;;3.05;;
77417;SDS011;66490;51.484;0.026;2023-03-31T04:04:58;21.08;;;2.22;;
77417;SDS011;66490;51.484;0.026;2023-03-31T04:07:42;20.77;;;2.67;;
77417;SDS011;66490;51.484;0.026;2023-03-31T04:10:26;15.52;;;2.33;;
77417;SDS011;66490;51.484;0.026;2023-03-31T04:13:10;18.02;;;2.67;;
77417;SDS011;66490;51.484;0.026;2023-03-31T04:15:54;15.75;;;3.70;;
77417;SDS011;66490;51.484;0.026;2023-03-31T04:18:38;20.30;;;3.45;;
77417;SDS011;66490;51.484;0.026;2023-03-31T04:21:31;18.30;;;3.40;;
77417;SDS011;66490;51.484;0.026;2023-03-31T04:24:17;22.63;;;3.80;;
77417;SDS011;66490;51.484;0.026;2023-03-31T04:27:04;28.98;;;4.05;;
77417;SDS011;66490;51.484;0.026;2023-03-31T04:29:50;21.58;;;3.50;;
77417;SDS011;66490;51.484;0.026;2023-03-31T04:32:37;29.50;;;3.72;;
77417;SDS011;66490;51.484;0.026;2023-03-31T04:35:25;28.47;;;4.73;;
77417;SDS011;66490;51.484;0.026;2023-03-31T04:38:10;23.55;;;3.05;;
77417;SDS011;66490;51.484;0.026;2023-03-31T04:40:54;29.00;;;4.05;;
77417;SDS011;66490;51.484;0.026;2023-03-31T04:43:39;16.00;;;2.72;;
77417;SDS011;66490;51.484;0.026;2023-03-31T04:46:23;29.63;;;4.22;;
77417;SDS011;66490;51.484;0.026;2023-03-31T04:49:08;18.30;;;3.73;;
77417;SDS011;66490;51.484;0.026;2023-03-31T04:51:52;15.60;;;2.78;;
77417;SDS011;66490;51.484;0.026;2023-03-31T04:54:36;22.33;;;3.97;;
77417;SDS011;66490;51.484;0.026;2023-03-31T04:57:20;21.38;;;3.17;;
77417;SDS011;66490;51.484;0.026;2023-03-31T05:00:04;19.88;;;3.30;;
77417;SDS011;66490;51.484;0.026;2023-03-31T05:02:50;19.40;;;2.90;;
77417;SDS011;66490;51.484;0.026;2023-03-31T05:05:34;15.98;;;3.42;;
77417;SDS011;66490;51.484;0.026;2023-03-31T05:08:18;11.88;;;2.17;;
77417;SDS011;66490;51.484;0.026;2023-03-31T05:11:04;14.75;;;3.45;;
77417;SDS011;66490;51.484;0.026;2023-03-31T05:13:49;20.52;;;3.70;;
77417;SDS011;66490;51.484;0.026;2023-03-31T05:16:33;15.40;;;2.23;;
77417;SDS011;66490;51.484;0.026;2023-03-31T05:19:17;14.20;;;2.25;;
77417;SDS011;66490;51.484;0.026;2023-03-31T05:22:01;17.15;;;1.95;;
77417;SDS011;66490;51.484;0.026;2023-03-31T05:24:45;12.57;;;1.67;;
77417;SDS011;66490;51.484;0.026;2023-03-31T05:27:29;16.00;;;2.63;;
77417;SDS011;66490;51.484;0.026;2023-03-31T05:30:13;11.83;;;2.13;;
77417;SDS011;66490;51.484;0.026;2023-03-31T05:32:59;15.55;;;1.42;;
77417;SDS011;66490;51.484;0.026;2023-03-31T05:35:43;15.73;;;2.33;;
77417;SDS011;66490;51.484;0.026;2023-03-31T05:38:27;9.48;;;1.80;;
77417;SDS011;66490;51.484;0.026;2023-03-31T05:41:14;12.25;;;2.35;;
77417;SDS011;66490;51.484;0.026;2023-03-31T05:43:59;12.30;;;2.53;;
77417;SDS011;66490;51.484;0.026;2023-03-31T05:46:44;8.65;;;1.40;;
77417;SDS011;66490;51.484;0.026;2023-03-31T05:49:28;8.13;;;1.23;;
77417;SDS011;66490;51.484;0.026;2023-03-31T05:52:12;8.48;;;2.05;;
77417;SDS011;66490;51.484;0.026;2023-03-31T05:55:01;10.40;;;1.92;;
77417;SDS011;66490;51.484;0.026;2023-03-31T05:57:45;12.57;;;2.27;;
77417;SDS011;66490;51.484;0.026;2023-03-31T06:00:30;11.05;;;1.85;;
77417;SDS011;66490;51.484;0.026;2023-03-31T06:03:14;15.35;;;2.78;;
77417;SDS011;66490;51.484;0.026;2023-03-31T06:05:58;12.88;;;2.17;;
77417;SDS011;66490;51.484;0.026;2023-03-31T06:08:42;13.93;;;2.25;;
77417;SDS011;66490;51.484;0.026;2023-03-31T06:11:30;17.07;;;3.07;;
77417;SDS011;66490;51.484;0.026;2023-03-31T06:14:14;15.48;;;1.85;;
77417;SDS011;66490;51.484;0.026;2023-03-31T06:16:58;16.25;;;2.05;;
77417;SDS011;66490;51.484;0.026;2023-03-31T06:19:43;13.85;;;1.98;;
77417;SDS011;66490;51.484;0.026;2023-03-31T06:22:27;18.75;;;3.35;;
77417;SDS011;66490;51.484;0.026;2023-03-31T06:25:11;11.00;;;1.93;;
77417;SDS011;66490;51.484;0.026;2023-03-31T06:27:55;10.68;;;1.60;;
77417;SDS011;66490;51.484;0.026;2023-03-31T06:30:39;9.48;;;2.30;;
77417;SDS011;66490;51.484;0.026;2023-03-31T06:33:23;12.20;;;1.80;;
77417;SDS011;66490;51.484;0.026;2023-03-31T06:36:11;16.08;;;2.08;;
77417;SDS011;66490;51.484;0.026;2023-03-31T06:38:55;9.53;;;2.03;;
77417;SDS011;66490;51.484;0.026;2023-03-31T06:41:43;10.35;;;2.83;;
77417;SDS011;66490;51.484;0.026;2023-03-31T06:44:30;15.48;;;2.35;;
77417;SDS011;66490;51.484;0.026;2023-03-31T06:47:14;9.98;;;1.70;;
77417;SDS011;66490;51.484;0.026;2023-03-31T06:49:58;9.88;;;1.90;;
77417;SDS011;66490;51.484;0.026;2023-03-31T06:52:42;13.63;;;2.80;;
77417;SDS011;66490;51.484;0.026;2023-03-31T06:55:26;13.25;;;2.13;;
77417;SDS011;66490;51.484;0.026;2023-03-31T06:58:10;22.85;;;2.47;;
77417;SDS011;66490;51.484;0.026;2023-03-31T07:00:55;12.75;;;3.10;;
77417;SDS011;66490;51.484;0.026;2023-03-31T07:03:39;19.13;;;3.15;;
77417;SDS011;66490;51.484;0.026;2023-03-31T07:06:26;14.00;;;2.60;;
77417;SDS011;66490;51.484;0.026;2023-03-31T07:09:10;16.98;;;3.45;;
77417;SDS011;66490;51.484;0.026;2023-03-31T07:11:54;23.33;;;2.75;;
77417;SDS011;66490;51.484;0.026;2023-03-31T07:14:38;14.85;;;2.58;;
77417;SDS011;66490;51.484;0.026;2023-03-31T07:17:22;17.20;;;1.88;;
77417;SDS011;66490;51.484;0.026;2023-03-31T07:20:09;16.33;;;3.07;;
77417;SDS011;66490;51.484;0.026;2023-03-31T07:22:56;20.48;;;3.35;;
77417;SDS011;66490;51.484;0.026;2023-03-31T07:25:39;14.90;;;2.65;;
77417;SDS011;66490;51.484;0.026;2023-03-31T07:28:23;16.13;;;2.92;;
77417;SDS011;66490;51.484;0.026;2023-03-31T07:31:11;17.45;;;2.90;;
77417;SDS011;66490;51.484;0.026;2023-03-31T07:33:55;20.10;;;3.30;;
77417;SDS011;66490;51.484;0.026;2023-03-31T07:36:39;19.65;;;2.95;;
77417;SDS011;66490;51.484;0.026;2023-03-31T07:39:23;20.90;;;3.40;;
77417;SDS011;66490;51.484;0.026;2023-03-31T07:42:07;14.52;;;2.53;;
77417;SDS011;66490;51.484;0.026;2023-03-31T07:44:51;23.35;;;3.03;;
77417;SDS011;66490;51.484;0.026;2023-03-31T07:47:35;28.10;;;4.10;;
77417;SDS011;66490;51.484;0.026;2023-03-31T07:50:21;20.00;;;3.05;;
77417;SDS011;66490;51.484;0.026;2023-03-31T07:53:06;19.58;;;3.47;;
77417;SDS011;66490;51.484;0.026;2023-03-31T07:55:50;17.65;;;3.70;;
77417;SDS011;66490;51.484;0.026;2023-03-31T07:58:34;18.95;;;3.50;;
77417;SDS011;66490;51.484;0.026;2023-03-31T08:01:21;23.67;;;3.67;;
77417;SDS011;66490;51.484;0.026;2023-03-31T08:04:09;21.08;;;4.40;;
77417;SDS011;66490;51.484;0.026;2023-03-31T08:06:53;21.55;;;4.38;;
77417;SDS011;66490;51.484;0.026;2023-03-31T08:09:38;21.17;;;3.38;;
77417;SDS011;66490;51.484;0.026;2023-03-31T08:12:25;22.58;;;4.50;;
77417;SDS011;66490;51.484;0.026;2023-03-31T08:15:09;27.17;;;4.00;;
77417;SDS011;66490;51.484;0.026;2023-03-31T08:17:53;16.33;;;4.03;;
77417;SDS011;66490;51.484;0.026;2023-03-31T08:20:38;28.45;;;3.55;;
77417;SDS011;66490;51.484;0.026;2023-03-31T08:23:23;21.15;;;3.05;;
77417;SDS011;66490;51.484;0.026;2023-03-31T08:26:14;29.48;;;4.03;;
77417;SDS011;66490;51.484;0.026;2023-03-31T08:29:01;24.13;;;3.50;;
77417;SDS011;66490;51.484;0.026;2023-03-31T08:31:47;20.52;;;3.28;;
77417;SDS011;66490;51.484;0.026;2023-03-31T08:34:31;24.73;;;3.47;;
77417;SDS011;66490;51.484;0.026;2023-03-31T08:37:14;24.40;;;3.38;;
77417;SDS011;66490;51.484;0.026;2023-03-31T08:39:58;26.77;;;3.70;;
77417;SDS011;66490;51.484;0.026;2023-03-31T08:42:50;24.73;;;4.03;;
77417;SDS011;66490;51.484;0.026;2023-03-31T08:45:40;22.77;;;3.90;;
77417;SDS011;66490;51.484;0.026;2023-03-31T08:48:33;20.58;;;4.38;;
77417;SDS011;66490;51.484;0.026;2023-03-31T08:51:22;23.45;;;4.90;;
77417;SDS011;66490;51.484;0.026;2023-03-31T08:57:20;16.90;;;2.80;;
77417;SDS011;66490;51.484;0.026;2023-03-31T09:00:12;16.67;;;2.97;;
77417;SDS011;66490;51.484;0.026;2023-03-31T09:03:04;24.17;;;3.05;;
77417;SDS011;66490;51.484;0.026;2023-03-31T09:05:52;22.50;;;3.03;;
77417;SDS011;66490;51.484;0.026;2023-03-31T09:08:38;19.98;;;3.20;;
77417;SDS011;66490;51.484;0.026;2023-03-31T09:17:25;14.32;;;2.72;;
77417;SDS011;66490;51.484;0.026;2023-03-31T09:23:04;12.93;;;2.72;;
77417;SDS011;66490;51.484;0.026;2023-03-31T09:25:50;24.67;;;3.40;;
77417;SDS011;66490;51.484;0.026;2023-03-31T09:28:35;18.00;;;2.97;;
77417;SDS011;66490;51.484;0.026;2023-03-31T09:31:21;17.10;;;2.50;;
77417;SDS011;66490;51.484;0.026;2023-03-31T09:34:09;19.20;;;3.28;;
77417;SDS011;66490;51.484;0.026;2023-03-31T09:36:55;24.08;;;3.25;;
77417;SDS011;66490;51.484;0.026;2023-03-31T09:39:39;16.60;;;3.13;;
77417;SDS011;66490;51.484;0.026;2023-03-31T09:42:27;18.58;;;2.60;;
77417;SDS011;66490;51.484;0.026;2023-03-31T09:45:13;23.20;;;4.15;;
77417;SDS011;66490;51.484;0.026;2023-03-31T09:47:58;15.38;;;3.15;;
77417;SDS011;66490;51.484;0.026;2023-03-31T09:50:45;16.98;;;2.67;;
77417;SDS011;66490;51.484;0.026;2023-03-31T09:53:48;20.20;;;3.17;;
77417;SDS011;66490;51.484;0.026;2023-03-31T09:56:44;27.10;;;4.68;;
77417;SDS011;66490;51.484;0.026;2023-03-31T09:59:33;13.90;;;3.15;;
77417;SDS011;66490;51.484;0.026;2023-03-31T10:02:36;19.58;;;3.65;;
77417;SDS011;66490;51.484;0.026;2023-03-31T10:16:49;22.33;;;3.47;;
77417;SDS011;66490;51.484;0.026;2023-03-31T10:19:35;9.70;;;2.50;;
77417;SDS011;66490;51.484;0.026;2023-03-31T10:25:14;18.00;;;2.90;;
77417;SDS011;66490;51.484;0.026;2023-03-31T10:27:59;14.60;;;2.72;;
77417;SDS011;66490;51.484;0.026;2023-03-31T10:30:50;17.73;;;3.17;;
77417;SDS011;66490;51.484;0.026;2023-03-31T10:33:37;11.88;;;2.25;;
77417;SDS011;66490;51.484;0.026;2023-03-31T10:36:26;12.60;;;3.23;;
77417;SDS011;66490;51.484;0.026;2023-03-31T10:39:11;19.85;;;3.53;;
77417;SDS011;66490;51.484;0.026;2023-03-31T10:41:58;11.98;;;2.25;;
77417;SDS011;66490;51.484;0.026;2023-03-31T10:44:45;15.65;;;2.85;;
77417;SDS011;66490;51.484;0.026;2023-03-31T10:47:32;15.55;;;2.40;;
77417;SDS011;66490;51.484;0.026;2023-03-31T10:50:18;16.60;;;2.10;;
77417;SDS011;66490;51.484;0.026;2023-03-31T10:53:10;10.23;;;1.95;;
77417;SDS011;66490;51.484;0.026;2023-03-31T10:59:03;7.78;;;1.30;;
77417;SDS011;66490;51.484;0.026;2023-03-31T11:13:24;5.30;;;1.02;;
77417;SDS011;66490;51.484;0.026;2023-03-31T11:16:15;5.05;;;1.23;;
77417;SDS011;66490;51.484;0.026;2023-03-31T11:22:00;3.42;;;0.60;;
77417;SDS011;66490;51.484;0.026;2023-03-31T11:30:37;2.40;;;0.90;;
77417;SDS011;66490;51.484;0.026;2023-03-31T11:42:07;5.13;;;1.10;;
77417;SDS011;66490;51.484;0.026;2023-03-31T11:44:53;2.03;;;0.82;;
77417;SDS011;66490;51.484;0.026;2023-03-31T11:47:39;1.73;;;0.63;;
77417;SDS011;66490;51.484;0.026;2023-03-31T11:50:28;3.25;;;0.80;;
77417;SDS011;66490;51.484;0.026;2023-03-31T11:53:17;1.67;;;0.60;;
77417;SDS011;66490;51.484;0.026;2023-03-31T11:56:01;2.72;;;0.88;;
77417;SDS011;66490;51.484;0.026;2023-03-31T11:58:51;2.50;;;0.88;;
77417;SDS011;66490;51.484;0.026;2023-03-31T12:01:39;4.47;;;0.93;;
77417;SDS011;66490;51.484;0.026;2023-03-31T12:04:36;2.63;;;1.10;;
77417;SDS011;66490;51.484;0.026;2023-03-31T12:10:14;2.10;;;0.98;;
77417;SDS011;66490;51.484;0.026;2023-03-31T12:16:17;3.50;;;1.40;;
77417;SDS011;66490;51.484;0.026;2023-03-31T12:19:07;2.28;;;0.93;;
77417;SDS011;66490;51.484;0.026;2023-03-31T12:21:55;2.80;;;1.00;;
77417;SDS011;66490;51.484;0.026;2023-03-31T12:24:41;2.92;;;1.00;;
77417;SDS011;66490;51.484;0.026;2023-03-31T12:30:18;2.40;;;0.77;;
77417;SDS011;66490;51.484;0.026;2023-03-31T12:33:11;3.30;;;0.88;;
77417;SDS011;66490;51.484;0.026;2023-03-31T12:39:16;4.40;;;0.95;;
77417;SDS011;66490;51.484;0.026;2023-03-31T12:45:22;1.70;;;0.70;;
77417;SDS011;66490;51.484;0.026;2023-03-31T13:00:37;4.63;;;1.00;;
77417;SDS011;66490;51.484;0.026;2023-03-31T13:06:09;2.72;;;0.80;;
77417;SDS011;66490;51.484;0.026;2023-03-31T13:08:55;7.55;;;1.50;;
77417;SDS011;66490;51.484;0.026;2023-03-31T13:11:39;3.88;;;1.17;;
77417;SDS011;66490;51.484;0.026;2023-03-31T13:14:36;4.73;;;0.97;;
77417;SDS011;66490;51.484;0.026;2023-03-31T13:17:34;4.93;;;1.08;;
77417;SDS011;66490;51.484;0.026;2023-03-31T13:25:57;4.10;;;1.30;;
77417;SDS011;66490;51.484;0.026;2023-03-31T13:28:42;5.77;;;1.07;;
77417;SDS011;66490;51.484;0.026;2023-03-31T13:31:26;4.32;;;0.88;;
77417;SDS011;66490;51.484;0.026;2023-03-31T13:34:34;4.45;;;1.15;;
77417;SDS011;66490;51.484;0.026;2023-03-31T13:43:39;3.27;;;1.67;;
77417;SDS011;66490;51.484;0.026;2023-03-31T13:55:45;7.20;;;1.75;;
77417;SDS011;66490;51.484;0.026;2023-03-31T13:58:41;5.17;;;1.77;;
77417;SDS011;66490;51.484;0.026;2023-03-31T14:07:54;7.60;;;1.60;;
77417;SDS011;66490;51.484;0.026;2023-03-31T14:10:40;2.60;;;0.80;;
77417;SDS011;66490;51.484;0.026;2023-03-31T14:13:25;2.93;;;1.30;;
77417;SDS011;66490;51.484;0.026;2023-03-31T14:16:09;5.47;;;1.50;;
77417;SDS011;66490;51.484;0.026;2023-03-31T14:18:55;3.95;;;1.10;;
77417;SDS011;66490;51.484;0.026;2023-03-31T14:21:46;5.70;;;1.33;;
77417;SDS011;66490;51.484;0.026;2023-03-31T14:24:46;4.30;;;0.93;;
77417;SDS011;66490;51.484;0.026;2023-03-31T14:27:42;3.33;;;0.97;;
77417;SDS011;66490;51.484;0.026;2023-03-31T14:36:17;2.55;;;1.10;;
77417;SDS011;66490;51.484;0.026;2023-03-31T14:39:07;5.38;;;1.08;;
77417;SDS011;66490;51.484;0.026;2023-03-31T14:41:53;3.73;;;1.07;;
77417;SDS011;66490;51.484;0.026;2023-03-31T14:44:37;4.35;;;1.20;;
77417;SDS011;66490;51.484;0.026;2023-03-31T14:47:24;3.92;;;1.40;;
77417;SDS011;66490;51.484;0.026;2023-03-31T14:50:14;2.40;;;1.00;;
77417;SDS011;66490;51.484;0.026;2023-03-31T14:52:58;3.22;;;1.30;;
77417;SDS011;66490;51.484;0.026;2023-03-31T14:55:44;3.27;;;1.43;;
77417;SDS011;66490;51.484;0.026;2023-03-31T14:58:31;3.13;;;1.30;;
77417;SDS011;66490;51.484;0.026;2023-03-31T15:01:18;4.05;;;1.73;;
77417;SDS011;66490;51.484;0.026;2023-03-31T15:04:08;3.42;;;1.20;;
77417;SDS011;66490;51.484;0.026;2023-03-31T15:07:01;5.13;;;1.70;;
77417;SDS011;66490;51.484;0.026;2023-03-31T15:09:50;3.77;;;1.40;;
77417;SDS011;66490;51.484;0.026;2023-03-31T15:12:36;4.03;;;1.38;;
77417;SDS011;66490;51.484;0.026;2023-03-31T15:15:21;3.17;;;1.10;;
77417;SDS011;66490;51.484;0.026;2023-03-31T15:18:09;1.70;;;1.00;;
77417;SDS011;66490;51.484;0.026;2023-03-31T15:21:04;4.15;;;0.80;;
77417;SDS011;66490;51.484;0.026;2023-03-31T15:23:52;3.67;;;1.00;;
77417;SDS011;66490;51.484;0.026;2023-03-31T15:26:40;2.05;;;0.82;;
77417;SDS011;66490;51.484;0.026;2023-03-31T15:29:47;2.30;;;0.73;;
77417;SDS011;66490;51.484;0.026;2023-03-31T15:32:37;2.47;;;1.08;;
77417;SDS011;66490;51.484;0.026;2023-03-31T15:35:26;2.38;;;1.15;;
77417;SDS011;66490;51.484;0.026;2023-03-31T15:38:12;3.57;;;1.00;;
77417;SDS011;66490;51.484;0.026;2023-03-31T15:40:59;2.33;;;0.80;;
77417;SDS011;66490;51.484;0.026;2023-03-31T15:43:44;1.70;;;1.10;;
77417;SDS011;66490;51.484;0.026;2023-03-31T15:49:20;3.70;;;0.77;;
77417;SDS011;66490;51.484;0.026;2023-03-31T15:52:17;1.83;;;1.07;;
77417;SDS011;66490;51.484;0.026;2023-03-31T15:55:23;2.30;;;1.10;;
77417;SDS011;66490;51.484;0.026;2023-03-31T15:58:08;3.63;;;0.80;;
77417;SDS011;66490;51.484;0.026;2023-03-31T16:00:54;1.92;;;0.82;;
77417;SDS011;66490;51.484;0.026;2023-03-31T16:03:54;2.00;;;0.90;;
77417;SDS011;66490;51.484;0.026;2023-03-31T16:09:38;2.38;;;0.50;;
77417;SDS011;66490;51.484;0.026;2023-03-31T16:15:22;2.40;;;1.00;;
77417;SDS011;66490;51.484;0.026;2023-03-31T16:18:12;1.60;;;0.90;;
77417;SDS011;66490;51.484;0.026;2023-03-31T16:20:58;1.60;;;0.47;;
77417;SDS011;66490;51.484;0.026;2023-03-31T16:23:54;2.38;;;0.60;;
77417;SDS011;66490;51.484;0.026;2023-03-31T16:26:40;2.15;;;0.93;;
77417;SDS011;66490;51.484;0.026;2023-03-31T16:29:24;2.47;;;0.75;;
77417;SDS011;66490;51.484;0.026;2023-03-31T16:32:13;2.15;;;0.90;;
77417;SDS011;66490;51.484;0.026;2023-03-31T16:35:01;2.33;;;0.83;;
77417;SDS011;66490;51.484;0.026;2023-03-31T16:37:46;5.38;;;1.00;;
77417;SDS011;66490;51.484;0.026;2023-03-31T16:40:34;1.13;;;0.40;;
77417;SDS011;66490;51.484;0.026;2023-03-31T16:43:19;1.38;;;0.75;;
77417;SDS011;66490;51.484;0.026;2023-03-31T16:46:04;1.60;;;0.88;;
77417;SDS011;66490;51.484;0.026;2023-03-31T16:48:49;2.73;;;1.03;;
77417;SDS011;66490;51.484;0.026;2023-03-31T16:51:34;2.38;;;1.13;;
77417;SDS011;66490;51.484;0.026;2023-03-31T16:54:27;2.13;;;1.10;;
77417;SDS011;66490;51.484;0.026;2023-03-31T16:57:22;2.03;;;1.00;;
77417;SDS011;66490;51.484;0.026;2023-03-31T17:00:12;1.63;;;0.55;;
77417;SDS011;66490;51.484;0.026;2023-03-31T17:06:11;1.85;;;0.90;;
77417;SDS011;66490;51.484;0.026;2023-03-31T17:09:08;1.83;;;0.98;;
77417;SDS011;66490;51.484;0.026;2023-03-31T17:12:04;2.00;;;0.85;;
77417;SDS011;66490;51.484;0.026;2023-03-31T17:14:48;2.25;;;0.90;;
77417;SDS011;66490;51.484;0.026;2023-03-31T17:17:33;2.67;;;1.20;;
77417;SDS011;66490;51.484;0.026;2023-03-31T17:20:27;2.38;;;1.17;;
77417;SDS011;66490;51.484;0.026;2023-03-31T17:23:15;4.90;;;0.90;;
77417;SDS011;66490;51.484;0.026;2023-03-31T17:25:59;3.35;;;1.13;;
77417;SDS011;66490;51.484;0.026;2023-03-31T17:28:46;3.58;;;1.38;;
77417;SDS011;66490;51.484;0.026;2023-03-31T17:31:30;2.90;;;1.23;;
77417;SDS011;66490;51.484;0.026;2023-03-31T17:34:14;3.50;;;0.90;;
77417;SDS011;66490;51.484;0.026;2023-03-31T17:37:00;3.15;;;1.20;;
77417;SDS011;66490;51.484;0.026;2023-03-31T17:39:45;3.22;;;1.30;;
77417;SDS011;66490;51.484;0.026;2023-03-31T17:42:29;2.95;;;1.20;;
77417;SDS011;66490;51.484;0.026;2023-03-31T17:45:16;3.27;;;1.43;;
77417;SDS011;66490;51.484;0.026;2023-03-31T17:48:00;3.22;;;0.85;;
77417;SDS011;66490;51.484;0.026;2023-03-31T17:50:44;4.30;;;1.40;;
77417;SDS011;66490;51.484;0.026;2023-03-31T17:53:50;3.28;;;1.08;;
77417;SDS011;66490;51.484;0.026;2023-03-31T17:56:34;5.28;;;1.40;;
77417;SDS011;66490;51.484;0.026;2023-03-31T17:59:19;3.43;;;1.30;;
77417;SDS011;66490;51.484;0.026;2023-03-31T18:02:03;3.55;;;1.70;;
77417;SDS011;66490;51.484;0.026;2023-03-31T18:04:47;3.17;;;1.30;;
77417;SDS011;66490;51.484;0.026;2023-03-31T18:07:33;4.90;;;2.00;;
77417;SDS011;66490;51.484;0.026;2023-03-31T18:10:18;6.28;;;1.40;;
77417;SDS011;66490;51.484;0.026;2023-03-31T18:13:05;3.90;;;1.70;;
77417;SDS011;66490;51.484;0.026;2023-03-31T18:15:50;4.90;;;1.35;;
77417;SDS011;66490;51.484;0.026;2023-03-31T18:18:37;6.30;;;1.40;;
77417;SDS011;66490;51.484;0.026;2023-03-31T18:21:23;5.93;;;2.10;;
77417;SDS011;66490;51.484;0.026;2023-03-31T18:24:07;4.78;;;2.00;;
77417;SDS011;66490;51.484;0.026;2023-03-31T18:26:57;5.00;;;1.97;;
77417;SDS011;66490;51.484;0.026;2023-03-31T18:29:41;5.10;;;2.22;;
77417;SDS011;66490;51.484;0.026;2023-03-31T18:35:11;6.63;;;2.75;;
77417;SDS011;66490;51.484;0.026;2023-03-31T18:37:55;7.28;;;2.67;;
77417;SDS011;66490;51.484;0.026;2023-03-31T18:40:48;5.97;;;2.40;;
77417;SDS011;66490;51.484;0.026;2023-03-31T18:43:33;7.18;;;3.25;;
77417;SDS011;66490;51.484;0.026;2023-03-31T18:46:23;7.55;;;2.42;;
77417;SDS011;66490;51.484;0.026;2023-03-31T18:49:07;7.05;;;2.92;;
77417;SDS011;66490;51.484;0.026;2023-03-31T18:51:52;8.35;;;3.03;;
77417;SDS011;66490;51.484;0.026;2023-03-31T18:54:39;6.23;;;2.90;;
77417;SDS011;66490;51.484;0.026;2023-03-31T18:57:24;7.22;;;3.08;;
77417;SDS011;66490;51.484;0.026;2023-03-31T19:00:13;7.38;;;3.10;;
77417;SDS011;66490;51.484;0.026;2023-03-31T19:03:04;6.53;;;3.05;;
77417;SDS011;66490;51.484;0.026;2023-03-31T19:05:49;7.38;;;2.88;;
77417;SDS011;66490;51.484;0.026;2023-03-31T19:08:33;6.60;;;3.83;;
77417;SDS011;66490;51.484;0.026;2023-03-31T19:11:17;10.80;;;3.80;;
77417;SDS011;66490;51.484;0.026;2023-03-31T19:14:01;10.15;;;4.07;;
77417;SDS011;66490;51.484;0.026;2023-03-31T19:16:46;10.02;;;4.15;;
77417;SDS011;66490;51.484;0.026;2023-03-31T19:19:33;9.75;;;4.40;;
77417;SDS011;66490;51.484;0.026;2023-03-31T19:22:20;14.57;;;5.50;;
77417;SDS011;66490;51.484;0.026;2023-03-31T19:25:14;20.33;;;5.57;;
77417;SDS011;66490;51.484;0.026;2023-03-31T19:27:59;15.90;;;4.97;;
77417;SDS011;66490;51.484;0.026;2023-03-31T19:30:47;13.70;;;5.55;;
77417;SDS011;66490;51.484;0.026;2023-03-31T19:33:32;13.10;;;5.95;;